< Typhoon 200206 2002 Season Typhoon 200208 >
Typhoon 200207 (HALONG)
General InformationTrack Information on Google MapsDetailed Wind InformationList of All Images || NewsDisaster Info.ResourceGoogle EarthGE AnimationAtom FeedGeoJSON
Detalied Best Track (Time Zone = UTC)
Year Month Day Hour Lat. Long. Pressure (hPa) Wind (kt) Class Image Chart
2002 7 6 06 9.5 160.0 1006 0 2 Image Chart
2002 7 6 12 9.5 159.4 1006 0 2 Image Chart
2002 7 6 18 9.0 158.7 1004 0 2 Image Chart
2002 7 7 00 8.5 158.0 1004 0 2 Image Chart
2002 7 7 06 8.7 157.2 1004 0 2 Image Chart
2002 7 7 12 8.8 156.6 1004 0 2 Image Chart
2002 7 7 18 9.1 155.6 1000 35 3 Image Chart
2002 7 8 00 9.4 154.6 998 40 3 Image Chart
2002 7 8 06 9.8 153.0 994 40 3 Image Chart
2002 7 8 12 10.1 151.7 992 45 3 Image Chart
2002 7 8 18 10.4 150.4 990 45 3 Image Chart
2002 7 9 00 10.8 149.3 985 50 4 Image Chart
2002 7 9 06 10.8 148.2 985 50 4 Image Chart
2002 7 9 12 10.8 147.4 980 55 4 Image Chart
2002 7 9 18 11.3 146.5 980 55 4 Image Chart
2002 7 10 00 11.9 145.1 975 60 4 Image Chart
2002 7 10 06 12.3 144.2 975 60 4 Image Chart
2002 7 10 12 12.3 143.2 975 60 4 Image Chart
2002 7 10 18 12.5 142.4 970 65 5 Image Chart
2002 7 11 00 12.7 141.6 965 70 5 Image Chart
2002 7 11 06 13.2 140.5 960 75 5 Image Chart
2002 7 11 12 13.7 139.4 960 75 5 Image Chart
2002 7 11 18 14.1 138.4 960 75 5 Image Chart
2002 7 12 00 14.9 137.5 960 75 5 Image Chart
2002 7 12 06 15.7 136.5 955 80 5 Image Chart
2002 7 12 12 16.6 135.7 950 80 5 Image Chart
2002 7 12 18 17.6 134.7 945 85 5 Image Chart
2002 7 13 00 18.8 133.6 945 85 5 Image Chart
2002 7 13 06 20.2 132.2 945 85 5 Image Chart
2002 7 13 12 21.6 130.8 945 85 5 Image Chart
2002 7 13 15 22.3 130.0 945 85 5 Image Chart
2002 7 13 18 22.8 129.4 945 85 5 Image Chart
2002 7 13 21 23.5 128.9 945 85 5 Image Chart
2002 7 14 00 24.0 128.3 950 80 5 Image Chart
2002 7 14 03 24.6 128.0 950 80 5 Image Chart
2002 7 14 06 25.1 127.7 955 75 5 Image Chart
2002 7 14 09 25.7 127.6 955 75 5 Image Chart
2002 7 14 12 26.2 127.6 960 70 5 Image Chart
2002 7 14 15 26.8 127.6 960 70 5 Image Chart
2002 7 14 18 27.5 127.6 960 70 5 Image Chart
2002 7 14 21 28.1 128.0 960 70 5 Image Chart
2002 7 15 00 28.8 128.6 965 65 5 Image Chart
2002 7 15 03 29.5 129.2 965 65 5 Image Chart
2002 7 15 06 30.1 130.2 965 65 5 Image Chart
2002 7 15 09 30.6 131.1 970 65 5 Image Chart
2002 7 15 12 31.3 132.3 975 60 4 Image Chart
2002 7 15 15 32.3 133.5 980 55 4 Image Chart
2002 7 15 18 33.0 135.1 980 55 4 Image Chart
2002 7 15 21 33.6 136.8 980 55 4 Image Chart
2002 7 16 00 34.6 138.7 975 60 4 Image Chart
2002 7 16 01 34.8 139.3 975 60 4 Image Chart
2002 7 16 03 35.6 140.6 975 60 4 Image Chart
2002 7 16 06 36.9 142.2 975 55 4 Image Chart
2002 7 16 09 38.2 144.5 980 50 4 Image Chart
2002 7 16 12 39.8 146.5 985 50 4 Image Chart
2002 7 16 18 42.4 148.9 984 0 6 Image Chart
2002 7 17 00 45.0 151.5 988 0 6 Image Chart
2002 7 17 06 47.5 154.5 990 0 6 Image Chart
2002 7 17 12 49.5 157.1 990 0 6 Image Chart
2002 7 17 18 51.2 158.9 990 0 6 Image Chart
2002 7 18 00 52.5 162.9 990 0 6 Image Chart
2002 7 18 06 53.4 163.5 990 0 6 Image Chart
2002 7 18 12 53.9 165.5 990 0 6 Image Chart
2002 7 18 18 54.6 167.0 992 0 6 Image Chart
2002 7 19 00 53.4 170.4 992 0 6 Image Chart
2002 7 19 06 52.2 173.6 992 0 6 Image Chart
2002 7 19 12 51.1 176.0 994 0 6 Image Chart
2002 7 19 18 50.3 180.4 994 0 6 Image Chart
Japan Meteorological Agency Best Track Data | Correction Date : 2006-01-18
< Typhoon 200206 2002 Season Typhoon 200208 >

Help